Terminal Aerodrome Forecast
Issued by NWS

Current Version | Previous Version | Text Only | Print | Product List | Glossary On
Versions: 1 2 3 4 5 6 7 8 9 10 11 12 13 14
888
FTUS45 KRIW 101122
TAFJAC
TAF
KJAC 101122Z 1012/1112 21011KT 1 1/2SM -SN OVC005
     FM101500 21012G22KT 1SM -SN OVC008
     FM102200 21012G22KT 2SM -SN OVC018
     FM110800 20012G20KT 4SM -SN OVC028
      AMD LTD TO CLD VIS AND WIND=

USA.gov is the U.S. government's official web portal to all federal, state and local government web resources and services.